createdAt,value
2018-06-10T00:01:00.024Z,21.40
2018-06-10T00:03:28.181Z,21.40
2018-06-10T00:05:56.362Z,21.40
2018-06-10T00:08:24.528Z,21.40
2018-06-10T00:10:52.716Z,21.40
2018-06-10T00:13:20.880Z,21.40
2018-06-10T00:15:49.073Z,21.40
2018-06-10T00:18:17.237Z,21.40
2018-06-10T00:20:45.597Z,21.50
2018-06-10T00:23:13.750Z,21.50
2018-06-10T00:25:41.916Z,21.40
2018-06-10T00:28:10.073Z,21.50
2018-06-10T00:30:38.270Z,21.50
2018-06-10T00:33:06.448Z,21.50
2018-06-10T00:35:34.630Z,21.50
2018-06-10T00:38:02.809Z,21.50
2018-06-10T00:40:30.966Z,21.50
2018-06-10T00:42:59.142Z,21.40
2018-06-10T00:45:27.305Z,21.40
2018-06-10T00:47:55.476Z,21.40
2018-06-10T00:50:23.638Z,21.40
2018-06-10T00:52:51.801Z,21.40
2018-06-10T00:55:19.974Z,21.40
2018-06-10T00:57:48.149Z,21.40
2018-06-10T01:00:16.306Z,21.40
2018-06-10T01:02:44.473Z,21.30
2018-06-10T01:05:12.633Z,21.30
2018-06-10T01:07:40.831Z,21.30
2018-06-10T01:10:09.016Z,21.30
2018-06-10T01:12:37.185Z,21.30
2018-06-10T01:15:05.360Z,21.30
2018-06-10T01:17:33.532Z,21.20
2018-06-10T01:20:01.689Z,21.20
2018-06-10T01:22:29.864Z,21.20
2018-06-10T01:24:58.017Z,21.20
2018-06-10T01:27:26.200Z,21.20
2018-06-10T01:29:54.377Z,21.20
2018-06-10T01:32:22.584Z,21.20
2018-06-10T01:34:50.879Z,21.20
2018-06-10T01:37:19.032Z,21.20
2018-06-10T01:39:47.220Z,21.20
2018-06-10T01:42:15.410Z,21.20
2018-06-10T01:44:43.581Z,21.20
2018-06-10T01:47:11.780Z,21.20
2018-06-10T01:49:39.949Z,21.20
2018-06-10T01:52:08.121Z,21.10
2018-06-10T01:54:36.293Z,21.20
2018-06-10T01:57:04.522Z,21.10
2018-06-10T01:59:32.697Z,21.10
2018-06-10T02:02:00.888Z,21.10
2018-06-10T02:04:29.073Z,21.10
2018-06-10T02:06:57.240Z,21.10
2018-06-10T02:09:25.435Z,21.10
2018-06-10T02:11:53.607Z,21.10
2018-06-10T02:14:21.756Z,21.10
2018-06-10T02:16:49.936Z,21.10
2018-06-10T02:19:18.112Z,21.10
2018-06-10T02:21:46.283Z,21.10
2018-06-10T02:24:14.457Z,21.10
2018-06-10T02:26:42.663Z,21.10
2018-06-10T02:31:38.773Z,21.10
2018-06-10T02:34:06.946Z,21.10
2018-06-10T02:36:35.113Z,21.10
2018-06-10T02:39:03.545Z,21.10
2018-06-10T02:41:31.717Z,21.10
2018-06-10T02:43:59.886Z,21.10
2018-06-10T02:46:28.049Z,21.00
2018-06-10T02:48:56.222Z,21.00
2018-06-10T02:51:24.381Z,21.00
2018-06-10T02:53:52.540Z,21.00
2018-06-10T02:56:20.730Z,21.00
2018-06-10T02:58:48.949Z,21.00
2018-06-10T03:01:17.134Z,21.00
2018-06-10T03:03:45.289Z,21.00
2018-06-10T03:06:13.490Z,21.00
2018-06-10T03:08:41.666Z,21.00
2018-06-10T03:11:09.837Z,21.00
2018-06-10T03:13:38.010Z,21.00
2018-06-10T03:16:06.177Z,21.00
2018-06-10T03:18:34.337Z,21.00
2018-06-10T03:21:02.510Z,21.00
2018-06-10T03:23:30.671Z,21.00
2018-06-10T03:25:58.845Z,21.00
2018-06-10T03:28:27.027Z,21.00
2018-06-10T03:30:55.336Z,20.90
2018-06-10T03:33:23.526Z,21.00
2018-06-10T03:35:51.721Z,21.00
2018-06-10T03:38:19.877Z,21.00
2018-06-10T03:40:48.053Z,21.00
2018-06-10T03:43:16.213Z,20.90
2018-06-10T03:45:44.391Z,20.90
2018-06-10T03:48:12.559Z,20.90
2018-06-10T03:50:40.726Z,20.90
2018-06-10T03:53:08.887Z,20.90
2018-06-10T03:55:37.040Z,20.90
2018-06-10T03:58:05.202Z,20.90
2018-06-10T04:00:33.372Z,20.90
2018-06-10T04:05:29.498Z,20.90
2018-06-10T04:07:57.653Z,20.90
2018-06-10T04:10:25.818Z,20.90
2018-06-10T04:12:53.989Z,20.90
2018-06-10T04:15:22.154Z,20.90
2018-06-10T04:17:50.332Z,20.90
2018-06-10T04:20:18.510Z,20.90
2018-06-10T04:22:46.686Z,20.90
2018-06-10T04:25:14.858Z,20.90
2018-06-10T04:27:43.032Z,20.80
2018-06-10T04:30:11.189Z,20.80
2018-06-10T04:32:39.371Z,20.80
2018-06-10T04:35:07.558Z,20.80
2018-06-10T04:37:35.733Z,20.80
2018-06-10T04:40:03.926Z,20.80
2018-06-10T04:42:32.109Z,20.90
2018-06-10T04:45:00.268Z,20.80
2018-06-10T04:47:28.969Z,20.80
2018-06-10T04:49:57.626Z,20.80
2018-06-10T04:52:26.174Z,20.90
2018-06-10T04:54:54.422Z,20.90
2018-06-10T04:57:22.592Z,21.00
2018-06-10T04:59:50.758Z,21.00
2018-06-10T05:02:18.933Z,21.00
2018-06-10T05:04:47.097Z,21.10
2018-06-10T05:07:15.261Z,21.10
2018-06-10T05:09:43.600Z,21.10
2018-06-10T05:12:11.758Z,21.10
2018-06-10T05:14:39.929Z,21.20
2018-06-10T05:17:08.067Z,21.20
2018-06-10T05:19:36.308Z,21.20
2018-06-10T05:22:04.394Z,21.20
2018-06-10T05:24:32.556Z,21.20
2018-06-10T05:27:00.701Z,21.20
2018-06-10T05:29:28.867Z,21.20
2018-06-10T05:31:57.001Z,21.20
2018-06-10T05:34:25.171Z,21.20
2018-06-10T05:36:53.437Z,21.20
2018-06-10T05:39:21.605Z,21.20
2018-06-10T05:41:49.782Z,21.20
2018-06-10T05:44:17.949Z,21.20
2018-06-10T05:46:46.105Z,21.20
2018-06-10T05:49:14.285Z,21.10
2018-06-10T05:51:42.476Z,21.10
2018-06-10T05:54:10.641Z,21.10
2018-06-10T05:56:38.811Z,21.10
2018-06-10T05:59:06.990Z,21.10
2018-06-10T06:01:35.158Z,21.10
2018-06-10T06:04:03.334Z,21.10
2018-06-10T06:06:31.507Z,21.10
2018-06-10T06:08:59.700Z,21.00
2018-06-10T06:11:27.866Z,21.00
2018-06-10T06:13:56.038Z,21.00
2018-06-10T06:16:24.221Z,21.00
2018-06-10T06:18:52.394Z,21.00
2018-06-10T06:21:20.585Z,21.00
2018-06-10T06:23:48.761Z,21.00
2018-06-10T06:26:16.965Z,21.00
2018-06-10T06:28:45.158Z,21.00
2018-06-10T06:31:13.430Z,21.00
2018-06-10T06:33:41.606Z,21.00
2018-06-10T06:36:09.810Z,21.00
2018-06-10T06:38:37.974Z,21.00
2018-06-10T06:41:06.222Z,20.90
2018-06-10T06:43:34.405Z,20.90
2018-06-10T06:46:02.613Z,20.90
2018-06-10T06:48:30.790Z,20.90
2018-06-10T06:50:59.137Z,20.90
2018-06-10T06:53:27.306Z,21.00
2018-06-10T06:55:55.480Z,20.90
2018-06-10T06:58:23.638Z,21.00
2018-06-10T07:00:51.838Z,20.90
2018-06-10T07:03:20.017Z,20.90
2018-06-10T07:05:48.216Z,20.90
2018-06-10T07:08:16.386Z,20.90
2018-06-10T07:10:44.547Z,21.00
2018-06-10T07:13:12.718Z,20.90
2018-06-10T07:15:40.931Z,21.00
2018-06-10T07:18:09.061Z,21.00
2018-06-10T07:20:37.242Z,21.00
2018-06-10T07:23:05.447Z,21.00
2018-06-10T07:28:01.573Z,21.10
2018-06-10T07:30:29.770Z,21.10
2018-06-10T07:32:57.913Z,21.10
2018-06-10T07:35:26.079Z,21.20
2018-06-10T07:37:54.265Z,21.20
2018-06-10T07:40:22.434Z,21.20
2018-06-10T07:42:50.646Z,21.20
2018-06-10T07:45:18.814Z,21.20
2018-06-10T07:47:47.029Z,21.20
2018-06-10T07:50:15.220Z,21.20
2018-06-10T07:52:43.421Z,21.20
2018-06-10T07:55:11.601Z,21.20
2018-06-10T07:57:39.784Z,21.20
2018-06-10T08:00:07.990Z,21.30
2018-06-10T08:02:36.152Z,21.30
2018-06-10T08:05:04.450Z,21.30
2018-06-10T08:07:32.659Z,21.30
2018-06-10T08:10:00.858Z,21.30
2018-06-10T08:12:29.047Z,21.30
2018-06-10T08:14:57.237Z,21.30
2018-06-10T08:17:25.440Z,21.40
2018-06-10T08:19:53.604Z,21.40
2018-06-10T08:22:21.821Z,21.40
2018-06-10T08:24:50.018Z,21.50
2018-06-10T08:27:18.205Z,21.50
2018-06-10T08:29:46.395Z,21.50
2018-06-10T08:32:14.572Z,21.50
2018-06-10T08:34:42.776Z,21.50
2018-06-10T08:37:10.940Z,21.50
2018-06-10T08:39:39.137Z,21.60
2018-06-10T08:42:07.314Z,21.60
2018-06-10T08:44:35.511Z,21.60
2018-06-10T08:47:03.873Z,21.60
2018-06-10T08:49:32.061Z,21.60
2018-06-10T08:52:00.239Z,21.60
2018-06-10T08:54:28.430Z,21.60
2018-06-10T08:56:56.738Z,21.60
2018-06-10T08:59:24.910Z,21.60
2018-06-10T09:01:53.101Z,21.60
2018-06-10T09:04:21.318Z,21.60
2018-06-10T09:06:49.486Z,21.70
2018-06-10T09:09:17.699Z,21.70
2018-06-10T09:11:45.909Z,21.80
2018-06-10T09:14:14.190Z,21.80
2018-06-10T09:16:42.401Z,21.80
2018-06-10T09:19:10.588Z,21.80
2018-06-10T09:21:38.777Z,21.90
2018-06-10T09:24:06.966Z,21.80
2018-06-10T09:26:35.157Z,21.80
2018-06-10T09:29:03.433Z,21.90
2018-06-10T09:33:59.622Z,21.90
2018-06-10T09:36:27.822Z,21.90
2018-06-10T09:38:55.981Z,21.90
2018-06-10T09:41:24.168Z,21.90
2018-06-10T09:43:52.356Z,22.00
2018-06-10T09:46:20.553Z,21.90
2018-06-10T09:48:48.745Z,22.00
2018-06-10T09:51:16.954Z,22.00
2018-06-10T09:53:45.139Z,22.00
2018-06-10T09:56:13.378Z,22.00
2018-06-10T09:58:41.554Z,22.10
2018-06-10T10:01:09.839Z,22.00
2018-06-10T10:03:38.029Z,22.10
2018-06-10T10:06:06.207Z,22.10
2018-06-10T10:08:34.498Z,22.20
2018-06-10T10:11:02.701Z,22.20
2018-06-10T10:13:30.858Z,22.20
2018-06-10T10:16:03.162Z,22.20
2018-06-10T10:18:34.924Z,22.30
2018-06-10T10:21:03.121Z,22.30
2018-06-10T10:23:31.293Z,22.30
2018-06-10T10:25:59.821Z,22.40
2018-06-10T10:28:27.989Z,22.40
2018-06-10T10:30:56.469Z,22.50
2018-06-10T10:33:24.653Z,22.50
2018-06-10T10:35:52.821Z,22.50
2018-06-10T10:38:21.029Z,22.60
2018-06-10T10:40:49.258Z,22.60
2018-06-10T10:43:17.457Z,22.60
2018-06-10T10:45:45.648Z,22.70
2018-06-10T10:48:13.828Z,22.70
2018-06-10T10:50:42.093Z,22.80
2018-06-10T10:53:10.285Z,22.80
2018-06-10T10:55:38.469Z,22.70
2018-06-10T10:58:06.662Z,22.70
2018-06-10T11:00:34.896Z,22.70
2018-06-10T11:03:03.085Z,22.80
2018-06-10T11:05:31.342Z,22.80
2018-06-10T11:07:59.580Z,22.80
2018-06-10T11:10:27.802Z,22.80
2018-06-10T11:12:55.997Z,22.80
2018-06-10T11:15:26.041Z,22.90
2018-06-10T11:17:54.466Z,23.00
2018-06-10T11:20:22.730Z,23.00
2018-06-10T11:22:50.932Z,23.10
2018-06-10T11:25:19.117Z,23.10
2018-06-10T11:27:47.293Z,23.20
2018-06-10T11:30:15.468Z,23.20
2018-06-10T11:32:43.677Z,23.30
2018-06-10T11:35:11.878Z,23.30
2018-06-10T11:37:40.051Z,23.30
2018-06-10T11:40:08.282Z,23.40
2018-06-10T11:42:36.559Z,23.40
2018-06-10T11:45:04.650Z,23.50
2018-06-10T11:47:32.812Z,23.50
2018-06-10T11:50:00.983Z,23.50
2018-06-10T11:52:29.202Z,23.50
2018-06-10T11:54:57.395Z,23.50
2018-06-10T11:57:25.545Z,23.50
2018-06-10T11:59:53.799Z,23.50
2018-06-10T12:02:21.957Z,23.40
2018-06-10T12:04:50.117Z,23.40
2018-06-10T12:07:18.282Z,23.40
2018-06-10T12:09:46.519Z,23.40
2018-06-10T12:12:14.685Z,23.40
2018-06-10T12:14:42.858Z,23.40
2018-06-10T12:17:11.118Z,23.30
2018-06-10T12:19:39.298Z,23.30
2018-06-10T12:22:07.461Z,23.30
2018-06-10T12:24:35.633Z,23.30
2018-06-10T12:27:03.797Z,23.30
2018-06-10T12:29:31.982Z,23.30
2018-06-10T12:32:00.154Z,23.30
2018-06-10T12:34:28.342Z,23.30
2018-06-10T12:36:56.505Z,23.40
2018-06-10T12:39:24.689Z,23.30
2018-06-10T12:41:52.871Z,23.30
2018-06-10T12:44:21.033Z,23.30
2018-06-10T12:46:49.229Z,23.30
2018-06-10T12:49:17.573Z,23.30
2018-06-10T12:51:45.686Z,23.40
2018-06-10T12:54:13.867Z,23.40
2018-06-10T12:56:42.047Z,23.40
2018-06-10T12:59:10.232Z,23.40
2018-06-10T13:01:38.396Z,23.40
2018-06-10T13:04:06.649Z,23.40
2018-06-10T13:06:34.816Z,23.40
2018-06-10T13:09:03.117Z,23.40
2018-06-10T13:11:31.293Z,23.50
2018-06-10T13:13:59.446Z,23.50
2018-06-10T13:16:27.616Z,23.50
2018-06-10T13:18:55.777Z,23.60
2018-06-10T13:21:23.963Z,23.70
2018-06-10T13:23:52.127Z,23.70
2018-06-10T13:26:20.321Z,23.80
2018-06-10T13:28:48.485Z,23.80
2018-06-10T13:31:16.657Z,23.90
2018-06-10T13:33:44.864Z,23.90
2018-06-10T13:36:13.007Z,23.90
2018-06-10T13:38:41.174Z,23.90
2018-06-10T13:41:09.333Z,23.90
2018-06-10T13:43:37.538Z,23.90
2018-06-10T13:46:05.760Z,23.90
2018-06-10T13:48:33.885Z,23.90
2018-06-10T13:51:02.068Z,23.90
2018-06-10T13:53:30.245Z,23.90
2018-06-10T13:55:58.433Z,23.90
2018-06-10T13:58:26.585Z,23.90
2018-06-10T14:00:54.771Z,23.90
2018-06-10T14:03:22.957Z,23.90
2018-06-10T14:05:51.131Z,23.90
2018-06-10T14:08:19.302Z,23.90
2018-06-10T14:10:47.473Z,23.90
2018-06-10T14:13:15.716Z,23.90
2018-06-10T14:15:43.886Z,23.90
2018-06-10T14:18:12.073Z,24.00
2018-06-10T14:20:40.250Z,24.00
2018-06-10T14:23:08.425Z,24.10
2018-06-10T14:25:36.986Z,24.10
2018-06-10T14:28:05.149Z,24.20
2018-06-10T14:30:33.340Z,24.20
2018-06-10T14:33:01.512Z,24.20
2018-06-10T14:35:29.690Z,24.30
2018-06-10T14:37:57.931Z,24.30
2018-06-10T14:40:26.313Z,24.30
2018-06-10T14:42:54.527Z,24.30
2018-06-10T14:45:22.870Z,24.40
2018-06-10T14:47:51.081Z,24.40
2018-06-10T14:50:19.370Z,24.40
2018-06-10T14:52:47.531Z,24.40
2018-06-10T14:55:15.746Z,24.40
2018-06-10T14:57:43.920Z,24.40
2018-06-10T15:00:12.133Z,24.40
2018-06-10T15:02:40.306Z,24.50
2018-06-10T15:05:08.485Z,24.50
2018-06-10T15:07:36.735Z,24.50
2018-06-10T15:10:04.943Z,24.50
2018-06-10T15:12:33.261Z,24.50
2018-06-10T15:15:01.457Z,24.50
2018-06-10T15:17:29.624Z,24.50
2018-06-10T15:22:25.787Z,24.50
2018-06-10T15:24:53.958Z,24.50
2018-06-10T15:27:22.182Z,24.40
2018-06-10T15:29:50.368Z,24.40
2018-06-10T15:32:18.600Z,24.40
2018-06-10T15:34:46.757Z,24.40
2018-06-10T15:37:14.971Z,24.40
2018-06-10T15:39:43.145Z,24.40
2018-06-10T15:42:11.337Z,24.40
2018-06-10T15:44:39.502Z,24.50
2018-06-10T15:47:07.657Z,24.50
2018-06-10T15:49:35.822Z,24.50
2018-06-10T15:52:03.987Z,24.50
2018-06-10T15:54:32.189Z,24.60
2018-06-10T15:57:00.346Z,24.60
2018-06-10T15:59:28.508Z,24.60
2018-06-10T16:01:56.666Z,24.60
2018-06-10T16:04:24.838Z,24.60
2018-06-10T16:06:52.988Z,24.70
2018-06-10T16:09:21.213Z,24.70
2018-06-10T16:11:49.374Z,24.70
2018-06-10T16:14:17.526Z,24.70
2018-06-10T16:19:13.762Z,24.70
2018-06-10T16:21:41.958Z,24.70
2018-06-10T16:24:10.119Z,24.70
2018-06-10T16:29:06.228Z,24.70
2018-06-10T16:31:34.394Z,24.70
2018-06-10T16:34:02.585Z,24.70
2018-06-10T16:36:30.723Z,24.70
2018-06-10T16:38:58.889Z,24.70
2018-06-10T16:41:27.114Z,24.70
2018-06-10T16:43:55.293Z,24.60
2018-06-10T16:48:51.382Z,24.50
2018-06-10T16:51:19.525Z,24.50
2018-06-10T16:53:47.681Z,24.50
2018-06-10T16:56:15.829Z,24.40
2018-06-10T16:58:44.002Z,24.40
2018-06-10T17:01:12.173Z,24.40
2018-06-10T17:03:40.351Z,24.40
2018-06-10T17:06:08.508Z,24.40
2018-06-10T17:08:36.749Z,24.40
2018-06-10T17:11:04.865Z,24.30
2018-06-10T17:13:33.045Z,24.30
2018-06-10T17:16:01.217Z,24.30
2018-06-10T17:18:29.402Z,24.30
2018-06-10T17:20:57.604Z,24.30
2018-06-10T17:23:25.792Z,24.30
2018-06-10T17:25:53.985Z,24.30
2018-06-10T17:28:22.206Z,24.30
2018-06-10T17:30:50.414Z,24.30
2018-06-10T17:33:19.404Z,24.30
2018-06-10T17:35:47.614Z,24.30
2018-06-10T17:38:15.785Z,24.20
2018-06-10T17:40:43.954Z,24.20
2018-06-10T17:43:12.146Z,24.20
2018-06-10T17:45:40.325Z,24.20
2018-06-10T17:48:08.496Z,24.20
2018-06-10T17:50:36.670Z,24.10
2018-06-10T17:53:04.848Z,24.10
2018-06-10T17:55:33.010Z,24.10
2018-06-10T17:58:01.198Z,24.10
2018-06-10T18:00:29.386Z,24.10
2018-06-10T18:02:57.538Z,24.10
2018-06-10T18:05:25.763Z,24.10
2018-06-10T18:07:53.954Z,24.10
2018-06-10T18:10:22.394Z,24.10
2018-06-10T18:15:20.545Z,24.10
2018-06-10T18:17:48.771Z,24.10
2018-06-10T18:20:17.010Z,24.00
2018-06-10T18:22:45.184Z,24.00
2018-06-10T18:25:13.393Z,23.90
2018-06-10T18:27:41.602Z,23.90
2018-06-10T18:30:10.094Z,23.90
2018-06-10T18:32:38.290Z,23.80
2018-06-10T18:35:06.530Z,23.80
2018-06-10T18:37:34.726Z,23.80
2018-06-10T18:40:02.938Z,23.80
2018-06-10T18:42:31.131Z,23.70
2018-06-10T18:44:59.317Z,23.70
2018-06-10T18:47:27.550Z,23.70
2018-06-10T18:49:55.733Z,23.60
2018-06-10T18:54:51.873Z,23.60
2018-06-10T18:57:20.063Z,23.50
2018-06-10T18:59:48.242Z,23.50
2018-06-10T19:02:16.434Z,23.50
2018-06-10T19:04:44.646Z,23.50
2018-06-10T19:07:12.818Z,23.40
2018-06-10T19:09:40.986Z,23.40
2018-06-10T19:12:09.182Z,23.30
2018-06-10T19:14:37.394Z,23.30
2018-06-10T19:17:05.554Z,23.20
2018-06-10T19:22:01.795Z,23.20
2018-06-10T19:26:58.109Z,23.10
2018-06-10T19:29:26.313Z,23.00
2018-06-10T19:31:54.502Z,23.00
2018-06-10T19:34:22.760Z,23.00
2018-06-10T19:36:51.011Z,22.90
2018-06-10T19:39:19.196Z,22.90
2018-06-10T19:41:47.422Z,22.80
2018-06-10T19:44:15.754Z,22.70
2018-06-10T19:46:43.979Z,22.70
2018-06-10T19:49:12.164Z,22.70
2018-06-10T19:51:40.319Z,22.70
2018-06-10T19:54:08.485Z,22.60
2018-06-10T19:56:36.702Z,22.60
2018-06-10T19:59:04.877Z,22.50
2018-06-10T20:01:33.408Z,22.50
2018-06-10T20:04:01.561Z,22.40
2018-06-10T20:08:57.652Z,22.30
2018-06-10T20:11:25.838Z,22.30
2018-06-10T20:13:53.997Z,22.20
2018-06-10T20:16:22.230Z,22.20
2018-06-10T20:18:50.406Z,22.10
2018-06-10T20:23:46.509Z,22.10
2018-06-10T20:26:14.769Z,22.00
2018-06-10T20:28:42.933Z,22.00
2018-06-10T20:31:11.098Z,21.90
2018-06-10T20:33:39.274Z,21.90
2018-06-10T20:36:07.424Z,21.80
2018-06-10T20:41:03.534Z,21.70
2018-06-10T20:43:31.714Z,21.70
2018-06-10T20:45:59.868Z,21.70
2018-06-10T20:48:28.067Z,21.60
2018-06-10T20:50:56.188Z,21.60
2018-06-10T20:53:24.344Z,21.50
2018-06-10T20:55:52.509Z,21.50
2018-06-10T20:58:20.666Z,21.40
2018-06-10T21:00:48.818Z,21.40
2018-06-10T21:03:17.043Z,21.40
2018-06-10T21:05:45.194Z,21.30
2018-06-10T21:08:13.401Z,21.30
2018-06-10T21:10:41.513Z,21.30
2018-06-10T21:13:09.664Z,21.20
2018-06-10T21:15:38.001Z,21.20
2018-06-10T21:18:06.154Z,21.10
2018-06-10T21:20:34.406Z,21.10
2018-06-10T21:23:02.570Z,21.00
2018-06-10T21:25:30.781Z,21.00
2018-06-10T21:27:58.961Z,21.00
2018-06-10T21:30:27.117Z,20.90
2018-06-10T21:32:55.273Z,20.90
2018-06-10T21:35:23.436Z,20.90
2018-06-10T21:37:51.605Z,20.80
2018-06-10T21:40:19.766Z,20.80
2018-06-10T21:42:47.929Z,20.80
2018-06-10T21:45:16.095Z,20.70
2018-06-10T21:47:44.277Z,20.70
2018-06-10T21:50:12.429Z,20.60
2018-06-10T21:52:40.593Z,20.60
2018-06-10T21:55:08.952Z,20.60
2018-06-10T21:57:37.125Z,20.50
2018-06-10T22:00:06.908Z,20.50
2018-06-10T22:02:35.087Z,20.50
2018-06-10T22:05:03.254Z,20.50
2018-06-10T22:07:31.446Z,20.40
2018-06-10T22:09:59.585Z,20.40
2018-06-10T22:12:27.725Z,20.40
2018-06-10T22:14:55.905Z,20.40
2018-06-10T22:17:24.069Z,20.40
2018-06-10T22:19:52.220Z,20.40
2018-06-10T22:22:20.376Z,20.30
2018-06-10T22:24:48.543Z,20.30
2018-06-10T22:27:16.757Z,20.30
2018-06-10T22:29:44.957Z,20.30
2018-06-10T22:32:13.136Z,20.30
2018-06-10T22:34:41.314Z,20.30
2018-06-10T22:37:09.476Z,20.20
2018-06-10T22:39:38.796Z,20.20
2018-06-10T22:42:06.963Z,20.20
2018-06-10T22:44:35.121Z,20.20
2018-06-10T22:47:03.276Z,20.10
2018-06-10T22:51:59.353Z,20.00
2018-06-10T22:54:38.112Z,20.00
2018-06-10T22:57:06.999Z,20.00
2018-06-10T22:59:35.184Z,19.90
2018-06-10T23:02:03.872Z,19.90
2018-06-10T23:04:32.046Z,19.90
2018-06-10T23:07:00.214Z,19.90
2018-06-10T23:09:28.390Z,19.80
2018-06-10T23:11:59.830Z,19.80
2018-06-10T23:14:28.002Z,19.80
2018-06-10T23:16:56.170Z,19.80
2018-06-10T23:19:24.338Z,19.70
2018-06-10T23:21:52.603Z,19.70
2018-06-10T23:24:20.820Z,19.70
2018-06-10T23:26:48.993Z,19.70
2018-06-10T23:29:17.146Z,19.60
2018-06-10T23:31:45.322Z,19.60
2018-06-10T23:34:13.486Z,19.50
2018-06-10T23:36:41.669Z,19.50
2018-06-10T23:39:09.841Z,19.50
2018-06-10T23:41:38.019Z,19.40
2018-06-10T23:44:06.190Z,19.40
2018-06-10T23:46:34.378Z,19.40
2018-06-10T23:49:02.537Z,19.30
2018-06-10T23:51:30.705Z,19.30
2018-06-10T23:53:59.060Z,19.30
2018-06-10T23:56:27.224Z,19.30
2018-06-10T23:58:55.378Z,19.20
